Time;durP1;ratioP1;P1;durP2;ratioP2;P2;SDS_P1;SDS_P2;PMS_P1;PMS_P2;Temp;Humidity;BMP_temperature;BMP_pressure;BME280_temperature;BME280_humidity;BME280_pressure;Samples;Min_cycle;Max_cycle;Signal;HPM_P1;HPM_P2
2021/12/05 00:24:03;;;;;;;8.52;3.08;;;4.10;99.90;;;;;;5071644;28;20045;-89
2021/12/05 00:26:31;;;;;;;9.48;3.63;;;4.30;99.90;;;;;;5071338;28;20044;-83
2021/12/05 00:37:31;;;;;;;9.82;3.10;;;4.20;99.90;;;;;;5091500;28;20086;-87
2021/12/05 00:47:39;;;;;;;8.43;3.88;;;4.90;99.90;;;;;;5110361;28;20059;-88
2021/12/05 01:08:26;;;;;;;9.23;3.15;;;4.20;99.90;;;;;;5050635;28;20053;-85
2021/12/05 01:13:44;;;;;;;7.25;3.00;;;4.20;99.90;;;;;;5049063;28;20075;-86
2021/12/05 01:16:18;;;;;;;9.20;3.58;;;4.30;99.90;;;;;;5050834;28;20125;-86
2021/12/05 01:18:44;;;;;;;8.25;3.17;;;4.20;99.90;;;;;;5050693;28;20048;-83
2021/12/05 01:21:14;;;;;;;9.43;3.88;;;4.20;99.90;;;;;;5048634;28;20051;-86
2021/12/05 01:23:54;;;;;;;8.65;3.50;;;4.60;99.90;;;;;;5048879;28;20066;-88
2021/12/05 01:36:46;;;;;;;8.80;3.25;;;4.30;99.90;;;;;;5095127;28;20044;-86
2021/12/05 02:00:35;;;;;;;3.90;1.50;;;4.90;99.90;;;;;;5030345;28;20060;-90
2021/12/05 02:07:38;;;;;;;5.40;1.55;;;4.10;99.90;;;;;;5012543;28;20053;-90
2021/12/05 02:45:19;;;;;;;6.28;2.00;;;3.80;99.90;;;;;;4954755;28;20051;-88
2021/12/05 02:47:49;;;;;;;6.07;1.90;;;4.00;99.90;;;;;;4971189;28;20051;-86
2021/12/05 02:50:17;;;;;;;4.60;1.92;;;4.00;99.90;;;;;;4987909;28;20057;-88
2021/12/05 02:52:44;;;;;;;4.43;1.98;;;3.70;99.90;;;;;;5049761;28;20425;-88
2021/12/05 02:55:14;;;;;;;3.92;1.83;;;3.70;99.90;;;;;;5054442;28;20049;-88
2021/12/05 03:00:13;;;;;;;4.90;1.45;;;3.70;99.90;;;;;;5122788;27;20086;-89
2021/12/05 03:02:42;;;;;;;4.18;1.80;;;3.70;99.90;;;;;;5118362;27;20058;-90
2021/12/05 03:05:12;;;;;;;4.38;1.92;;;3.70;99.90;;;;;;5116543;27;20081;-89
2021/12/05 03:07:42;;;;;;;5.05;2.08;;;3.70;99.90;;;;;;5135948;27;20050;-88
2021/12/05 03:10:12;;;;;;;3.83;1.80;;;3.70;99.90;;;;;;5116489;27;20502;-85
2021/12/05 03:12:39;;;;;;;4.20;1.83;;;3.70;99.90;;;;;;5136347;27;20050;-86
2021/12/05 03:15:09;;;;;;;4.18;1.40;;;3.70;99.90;;;;;;5134802;27;20127;-88
2021/12/05 03:17:35;;;;;;;3.92;2.00;;;3.70;99.90;;;;;;5136234;27;20059;-88
2021/12/05 03:20:04;;;;;;;5.03;1.92;;;3.70;99.90;;;;;;5136524;27;20039;-89
2021/12/05 03:22:30;;;;;;;3.25;1.73;;;3.70;99.90;;;;;;5134468;27;20549;-87
2021/12/05 03:24:56;;;;;;;4.85;2.22;;;4.30;99.90;;;;;;5136361;27;20082;-89
2021/12/05 03:27:22;;;;;;;4.82;2.00;;;3.80;99.90;;;;;;5134182;27;20067;-87
2021/12/05 03:29:48;;;;;;;4.43;1.92;;;3.80;99.90;;;;;;5117841;27;20039;-87
2021/12/05 03:32:13;;;;;;;6.63;2.15;;;3.60;99.90;;;;;;5131553;27;20079;-84
2021/12/05 03:34:39;;;;;;;5.32;2.50;;;3.80;99.90;;;;;;5115610;28;20071;-85
2021/12/05 03:37:05;;;;;;;4.22;2.40;;;3.80;99.90;;;;;;5115195;27;20399;-84
2021/12/05 03:39:31;;;;;;;5.68;2.47;;;4.10;99.90;;;;;;5115688;28;20454;-86
2021/12/05 03:41:57;;;;;;;5.13;2.20;;;3.90;99.90;;;;;;5116363;27;20051;-87
2021/12/05 03:44:26;;;;;;;5.00;2.70;;;3.90;99.90;;;;;;5115498;28;20035;-85
2021/12/05 03:46:53;;;;;;;6.72;2.03;;;3.80;99.90;;;;;;5112408;27;20051;-88
2021/12/05 03:49:21;;;;;;;4.63;2.20;;;3.90;99.90;;;;;;5135833;27;20047;-88
2021/12/05 03:51:58;;;;;;;5.18;2.38;;;3.90;99.90;;;;;;5135664;27;20118;-89
2021/12/05 03:54:24;;;;;;;6.32;2.38;;;3.90;99.90;;;;;;5137024;27;20086;-89
2021/12/05 03:56:50;;;;;;;6.82;2.30;;;3.90;99.90;;;;;;5117017;27;20074;-85
2021/12/05 03:59:18;;;;;;;4.07;2.47;;;3.90;99.90;;;;;;5136758;27;20035;-87
2021/12/05 04:01:44;;;;;;;7.85;2.80;;;4.40;99.90;;;;;;5135609;27;20050;-85
2021/12/05 04:04:11;;;;;;;6.80;2.53;;;3.90;99.90;;;;;;5136575;27;20046;-86
2021/12/05 04:06:39;;;;;;;8.93;2.80;;;4.20;99.90;;;;;;5117018;27;20088;-87
2021/12/05 04:09:14;;;;;;;5.32;2.40;;;3.90;99.90;;;;;;5143728;27;20045;-87
2021/12/05 04:11:46;;;;;;;8.45;3.70;;;3.90;99.90;;;;;;5137799;27;20047;-85
2021/12/05 04:14:14;;;;;;;7.20;2.70;;;4.00;99.90;;;;;;5153764;27;20135;-85
2021/12/05 04:16:42;;;;;;;5.97;2.25;;;4.00;99.90;;;;;;5156019;27;20118;-87
2021/12/05 04:19:08;;;;;;;4.68;2.00;;;4.00;99.90;;;;;;5141413;27;20042;-85
2021/12/05 04:21:36;;;;;;;5.55;2.40;;;4.00;99.90;;;;;;5155740;27;20074;-86
2021/12/05 04:24:04;;;;;;;3.95;2.03;;;4.30;99.90;;;;;;5155703;27;20082;-89
2021/12/05 04:26:30;;;;;;;5.78;2.55;;;4.00;99.90;;;;;;5153319;27;20121;-85
2021/12/05 04:28:56;;;;;;;5.18;2.38;;;3.90;99.90;;;;;;5155710;27;20043;-82
2021/12/05 04:31:22;;;;;;;5.68;2.38;;;3.90;99.90;;;;;;5153750;27;20043;-86
2021/12/05 04:33:49;;;;;;;4.00;2.33;;;4.40;99.90;;;;;;5155586;27;20038;-89
2021/12/05 04:36:16;;;;;;;4.63;2.05;;;3.90;99.90;;;;;;5153998;27;20042;-87
2021/12/05 04:38:42;;;;;;;3.95;1.90;;;3.90;99.90;;;;;;5155510;27;20034;-87
2021/12/05 04:41:07;;;;;;;4.68;2.30;;;3.90;99.90;;;;;;5153695;27;20065;-87
2021/12/05 04:43:38;;;;;;;6.30;2.17;;;3.90;99.90;;;;;;5155703;27;20043;-88
2021/12/05 04:46:06;;;;;;;5.43;3.00;;;4.40;99.90;;;;;;5153812;27;20123;-88
2021/12/05 04:48:32;;;;;;;7.40;2.97;;;4.20;99.90;;;;;;5137152;27;20471;-87
2021/12/05 04:50:59;;;;;;;8.55;2.70;;;4.00;99.90;;;;;;5153704;27;20066;-88
2021/12/05 04:53:27;;;;;;;5.82;2.47;;;3.90;99.90;;;;;;5136778;27;20046;-87
2021/12/05 04:55:53;;;;;;;8.18;2.80;;;4.00;99.90;;;;;;5136586;27;20444;-86
2021/12/05 04:58:19;;;;;;;6.18;2.67;;;4.00;99.90;;;;;;5153325;27;20116;-90
2021/12/05 05:00:46;;;;;;;6.13;2.30;;;4.00;99.90;;;;;;5153375;27;20506;-87
2021/12/05 05:03:13;;;;;;;6.43;2.72;;;3.90;99.90;;;;;;5137255;27;20474;-86
2021/12/05 05:05:45;;;;;;;6.50;2.90;;;3.90;99.90;;;;;;5134249;27;20048;-87
2021/12/05 05:08:11;;;;;;;10.98;3.08;;;4.10;99.90;;;;;;5142069;27;20030;-86
2021/12/05 05:10:37;;;;;;;6.20;2.75;;;4.00;99.90;;;;;;5154867;27;20504;-85
2021/12/05 05:13:02;;;;;;;5.63;2.78;;;4.00;99.90;;;;;;5152801;27;20038;-87
2021/12/05 05:15:30;;;;;;;9.65;3.45;;;3.90;99.90;;;;;;5154392;27;20037;-88
2021/12/05 05:17:58;;;;;;;7.13;2.92;;;3.90;99.90;;;;;;5152405;27;20055;-84
2021/12/05 05:26:29;;;;;;;11.63;3.97;;;3.90;99.90;;;;;;5151972;27;20043;-86
2021/12/05 05:47:53;;;;;;;11.48;4.88;;;3.90;99.90;;;;;;5153450;27;20502;-90
2021/12/05 05:50:20;;;;;;;9.48;4.90;;;3.90;99.90;;;;;;5129774;27;20400;-89
2021/12/05 05:52:46;;;;;;;11.20;4.95;;;4.40;99.90;;;;;;5149511;27;20494;-88
2021/12/05 05:55:13;;;;;;;7.70;4.35;;;3.90;99.90;;;;;;5151885;27;20436;-89
2021/12/05 05:58:06;;;;;;;14.15;4.88;;;3.90;99.90;;;;;;5153700;27;20107;-90
2021/12/05 06:05:40;;;;;;;11.10;4.30;;;3.90;99.90;;;;;;5133364;27;20460;-85
2021/12/05 06:08:06;;;;;;;10.73;4.30;;;3.90;99.90;;;;;;5134677;27;20096;-86
2021/12/05 06:10:33;;;;;;;8.38;4.28;;;3.90;99.90;;;;;;5148375;27;20035;-89
2021/12/05 06:13:00;;;;;;;8.70;4.57;;;3.90;99.90;;;;;;5148041;27;20039;-88
2021/12/05 06:15:28;;;;;;;10.45;5.03;;;3.90;99.90;;;;;;5114597;28;20051;-89
2021/12/05 06:17:54;;;;;;;12.00;5.18;;;4.20;99.90;;;;;;5133473;27;20118;-89
2021/12/05 06:20:25;;;;;;;12.82;5.22;;;3.90;99.90;;;;;;5126960;27;20077;-90
2021/12/05 06:22:52;;;;;;;11.93;4.78;;;3.80;99.90;;;;;;5143987;27;20031;-89
2021/12/05 06:25:22;;;;;;;11.43;3.92;;;4.30;99.90;;;;;;5134087;27;20512;-90
2021/12/05 06:27:50;;;;;;;12.23;4.07;;;4.10;99.90;;;;;;5115460;27;20555;-89
2021/12/05 06:30:29;;;;;;;9.95;3.90;;;4.50;99.90;;;;;;5138451;27;20065;-89
2021/12/05 06:40:50;;;;;;;9.02;2.70;;;3.70;99.90;;;;;;5118657;27;20578;-89
2021/12/05 06:46:24;;;;;;;10.00;2.90;;;4.30;99.90;;;;;;5053016;28;20064;-88
2021/12/05 06:48:50;;;;;;;11.57;3.58;;;3.70;99.90;;;;;;5048018;28;20101;-89
2021/12/05 06:51:19;;;;;;;7.55;3.22;;;3.70;99.90;;;;;;5059907;28;20051;-86
2021/12/05 06:53:45;;;;;;;12.38;3.47;;;3.70;99.90;;;;;;5070779;28;20057;-87
2021/12/05 06:56:11;;;;;;;12.93;3.20;;;4.30;99.90;;;;;;5040372;28;20056;-85
2021/12/05 06:58:37;;;;;;;8.13;3.03;;;4.00;99.90;;;;;;5045584;28;20412;-84
2021/12/05 07:01:06;;;;;;;9.75;3.38;;;3.70;99.90;;;;;;5071507;28;20063;-87
2021/12/05 07:03:32;;;;;;;7.70;3.10;;;3.70;99.90;;;;;;5072519;28;20087;-83
2021/12/05 07:08:31;;;;;;;6.65;3.05;;;3.70;99.90;;;;;;5049193;28;20467;-88
2021/12/05 07:11:04;;;;;;;7.93;3.00;;;3.70;99.90;;;;;;5054039;28;20056;-88
2021/12/05 07:19:05;;;;;;;6.78;2.88;;;3.70;99.90;;;;;;5052794;28;20322;-82
2021/12/05 07:24:07;;;;;;;6.40;2.60;;;4.20;99.90;;;;;;5114237;27;20129;-88
2021/12/05 07:40:27;;;;;;;5.32;2.10;;;3.70;99.90;;;;;;5115028;27;20047;-80
2021/12/05 07:42:59;;;;;;;6.10;2.17;;;3.70;99.90;;;;;;5116305;27;20036;-83
2021/12/05 07:45:33;;;;;;;3.20;1.85;;;4.10;99.90;;;;;;5115351;27;20044;-84
2021/12/05 07:48:09;;;;;;;5.05;2.22;;;3.70;99.90;;;;;;5121972;27;20058;-82
2021/12/05 07:50:56;;;;;;;5.68;2.20;;;3.80;99.90;;;;;;5154944;27;20046;-84
2021/12/05 07:53:28;;;;;;;5.32;2.13;;;3.70;99.90;;;;;;5152100;27;20144;-86
2021/12/05 07:55:59;;;;;;;6.07;2.20;;;3.70;99.90;;;;;;5137335;27;20046;-84
2021/12/05 08:01:04;;;;;;;8.35;2.40;;;3.70;99.90;;;;;;5116931;27;20478;-85
2021/12/05 08:14:35;;;;;;;4.63;2.15;;;3.60;99.90;;;;;;5138674;27;20126;-93
2021/12/05 08:17:03;;;;;;;5.65;2.15;;;3.20;99.90;;;;;;5138205;27;20051;-85
2021/12/05 08:19:28;;;;;;;6.70;2.88;;;3.30;99.90;;;;;;5152985;27;20043;-88
2021/12/05 08:21:56;;;;;;;5.55;2.53;;;3.70;99.90;;;;;;5155192;27;20045;-87
2021/12/05 08:24:32;;;;;;;6.80;2.72;;;3.60;99.90;;;;;;5146075;27;20417;-85
2021/12/05 08:26:58;;;;;;;4.97;2.40;;;3.60;99.90;;;;;;5131049;27;20502;-86
2021/12/05 08:29:46;;;;;;;5.47;2.55;;;3.70;99.90;;;;;;5098551;27;20042;-86
2021/12/05 08:35:18;;;;;;;6.45;2.38;;;3.10;99.90;;;;;;5098418;27;20086;-85
2021/12/05 08:38:41;;;;;;;5.75;2.10;;;3.70;99.90;;;;;;5119850;27;20080;-85
2021/12/05 08:41:10;;;;;;;7.35;2.47;;;3.70;99.90;;;;;;5135150;27;20035;-87
2021/12/05 09:26:49;;;;;;;7.60;2.83;;;3.90;99.90;;;;;;5135053;27;20047;-85
2021/12/05 10:07:02;;;;;;;9.77;3.20;;;4.70;99.90;;;;;;5156827;27;20053;-83
2021/12/05 10:37:19;;;;;;;8.68;4.35;;;4.10;99.90;;;;;;5051423;28;20060;-90
2021/12/05 10:39:45;;;;;;;7.60;3.40;;;4.00;99.90;;;;;;5053402;28;20048;-89
2021/12/05 10:42:38;;;;;;;8.10;3.58;;;4.40;99.90;;;;;;5052202;28;20134;-86
2021/12/05 10:45:10;;;;;;;9.85;3.85;;;4.00;99.90;;;;;;5036126;28;20497;-87
2021/12/05 10:47:36;;;;;;;7.93;3.65;;;4.70;99.90;;;;;;5052714;28;20045;-84
2021/12/05 10:50:31;;;;;;;9.90;3.70;;;4.10;99.90;;;;;;5036287;28;20110;-87
2021/12/05 10:53:33;;;;;;;9.80;4.03;;;4.10;99.90;;;;;;5052807;28;20224;-87
2021/12/05 10:56:25;;;;;;;9.48;3.28;;;4.10;99.90;;;;;;5035542;28;20053;-85
2021/12/05 10:58:53;;;;;;;9.07;3.55;;;4.10;99.90;;;;;;5052797;28;20138;-86
2021/12/05 11:01:41;;;;;;;6.90;3.42;;;4.10;99.90;;;;;;5052040;28;20049;-82
2021/12/05 11:04:14;;;;;;;5.78;2.88;;;4.10;99.90;;;;;;5052587;28;20501;-86
2021/12/05 11:06:52;;;;;;;9.93;4.53;;;4.20;99.90;;;;;;5052047;28;20135;-87
2021/12/05 11:09:22;;;;;;;9.30;3.47;;;4.20;99.90;;;;;;5036052;28;20080;-84
2021/12/05 11:11:52;;;;;;;7.40;3.85;;;4.20;99.90;;;;;;5019252;28;20411;-87
2021/12/05 11:14:22;;;;;;;6.65;3.28;;;4.30;99.90;;;;;;5126101;27;20085;-84
2021/12/05 11:16:51;;;;;;;9.70;3.22;;;4.70;99.90;;;;;;5115499;27;20470;-84
2021/12/05 11:19:24;;;;;;;11.48;4.35;;;4.40;99.90;;;;;;5116817;27;20145;-86
2021/12/05 11:21:56;;;;;;;10.13;3.83;;;4.40;99.90;;;;;;5122768;27;20081;-85
2021/12/05 11:24:26;;;;;;;11.38;5.25;;;4.40;99.90;;;;;;5122544;27;20050;-88
2021/12/05 11:27:09;;;;;;;9.65;4.18;;;4.50;99.90;;;;;;5120324;27;20044;-85
2021/12/05 11:29:41;;;;;;;9.40;4.45;;;4.50;99.90;;;;;;5115222;27;20104;-82
2021/12/05 11:32:13;;;;;;;10.27;4.78;;;4.50;99.90;;;;;;5119595;27;20060;-83
2021/12/05 11:34:39;;;;;;;9.85;4.65;;;4.50;99.90;;;;;;5117523;27;20084;-82
2021/12/05 11:37:05;;;;;;;8.85;3.88;;;4.50;99.90;;;;;;5134030;27;20429;-86
2021/12/05 11:39:31;;;;;;;11.10;4.60;;;4.00;99.90;;;;;;5127266;27;20066;-82
2021/12/05 11:41:56;;;;;;;9.65;4.35;;;4.90;99.90;;;;;;5117335;27;20039;-84
2021/12/05 11:44:25;;;;;;;9.57;4.32;;;4.70;99.90;;;;;;5135806;27;20399;-89
2021/12/05 11:46:51;;;;;;;8.35;3.95;;;5.40;99.90;;;;;;5127327;27;20051;-90
2021/12/05 11:49:21;;;;;;;9.65;3.78;;;5.30;99.90;;;;;;5156264;27;20501;-90
2021/12/05 11:51:51;;;;;;;8.35;4.20;;;4.90;99.90;;;;;;5156376;27;20086;-89
2021/12/05 11:54:22;;;;;;;5.20;3.00;;;5.20;99.90;;;;;;5156615;27;20051;-89
2021/12/05 11:56:58;;;;;;;14.10;4.90;;;5.10;99.90;;;;;;5156194;27;20053;-83
2021/12/05 11:59:27;;;;;;;12.95;5.63;;;5.10;99.90;;;;;;5156501;27;20113;-82
2021/12/05 12:02:13;;;;;;;11.38;5.60;;;5.20;99.90;;;;;;5137735;27;20124;-83
2021/12/05 12:04:53;;;;;;;11.23;5.05;;;5.20;99.90;;;;;;5156430;27;20039;-82
2021/12/05 12:07:25;;;;;;;10.32;4.18;;;5.20;99.90;;;;;;5137367;27;20046;-82
2021/12/05 12:09:58;;;;;;;8.77;4.53;;;5.30;99.90;;;;;;5137465;27;20047;-82
2021/12/05 12:12:25;;;;;;;11.57;4.35;;;5.30;99.90;;;;;;5137332;27;20084;-83
2021/12/05 12:14:52;;;;;;;10.40;4.72;;;5.70;99.90;;;;;;5156208;27;20103;-86
2021/12/05 12:17:18;;;;;;;12.25;5.25;;;5.40;99.90;;;;;;5137813;27;20113;-83
2021/12/05 12:19:46;;;;;;;10.55;4.40;;;5.70;99.90;;;;;;5156018;27;20071;-85
2021/12/05 12:22:13;;;;;;;10.00;5.13;;;5.50;99.90;;;;;;5155693;27;20502;-83
2021/12/05 12:24:40;;;;;;;7.65;3.97;;;5.50;99.90;;;;;;5155593;27;20081;-82
2021/12/05 12:27:07;;;;;;;7.97;3.95;;;6.00;99.90;;;;;;5148324;27;20082;-84
2021/12/05 12:29:34;;;;;;;8.00;4.32;;;6.00;99.90;;;;;;5138199;27;20046;-84
2021/12/05 12:32:12;;;;;;;8.27;3.85;;;6.30;99.90;;;;;;5144875;27;20039;-84
2021/12/05 12:34:38;;;;;;;9.23;3.80;;;5.50;99.90;;;;;;5142774;27;20096;-85
2021/12/05 12:37:05;;;;;;;6.55;3.83;;;5.50;99.90;;;;;;5135060;27;20042;-87
2021/12/05 12:39:38;;;;;;;7.45;4.00;;;5.50;99.90;;;;;;5134635;27;20374;-87
2021/12/05 12:42:13;;;;;;;7.45;4.32;;;5.50;99.90;;;;;;5134596;27;20035;-86
2021/12/05 12:44:59;;;;;;;8.23;4.05;;;5.40;99.90;;;;;;5137105;27;20110;-81
2021/12/05 12:47:53;;;;;;;7.72;4.22;;;5.40;99.90;;;;;;5133744;27;20047;-82
2021/12/05 12:50:29;;;;;;;8.52;4.38;;;5.40;99.90;;;;;;5129612;27;20051;-86
2021/12/05 12:53:23;;;;;;;7.60;3.33;;;5.60;99.90;;;;;;5119163;27;20039;-82
2021/12/05 12:56:04;;;;;;;8.15;3.17;;;5.30;99.90;;;;;;5125880;27;20042;-82
2021/12/05 12:58:43;;;;;;;8.38;3.38;;;5.30;99.90;;;;;;5152816;27;20091;-87
2021/12/05 13:10:04;;;;;;;;;;;5.30;99.90;;;;;;5120827;27;20076;-88
2021/12/05 13:12:44;;;;;;;7.03;4.25;;;5.30;99.90;;;;;;5126635;27;19919;-87
2021/12/05 13:15:36;;;;;;;6.93;3.60;;;5.30;99.90;;;;;;5145299;27;20050;-86
2021/12/05 13:18:25;;;;;;;10.77;4.18;;;5.30;99.90;;;;;;5136220;27;20043;-86
2021/12/05 13:21:07;;;;;;;7.60;3.70;;;5.30;99.90;;;;;;5134322;27;20391;-86
2021/12/05 13:23:40;;;;;;;11.07;3.70;;;5.30;99.90;;;;;;5134004;27;20047;-86
2021/12/05 13:26:15;;;;;;;5.60;3.45;;;5.30;99.90;;;;;;5134259;27;20054;-86
2021/12/05 13:28:51;;;;;;;8.30;3.80;;;5.30;99.90;;;;;;5134222;27;20039;-85
2021/12/05 13:31:30;;;;;;;4.90;2.80;;;5.30;99.90;;;;;;5116236;27;20123;-87
2021/12/05 13:34:15;;;;;;;7.22;3.15;;;5.30;99.90;;;;;;5134066;27;20065;-80
2021/12/05 13:36:44;;;;;;;6.40;3.50;;;5.30;99.90;;;;;;5126017;27;20479;-84
2021/12/05 13:39:28;;;;;;;7.22;4.35;;;5.30;99.90;;;;;;5124686;27;20296;-88
2021/12/05 13:42:09;;;;;;;12.48;3.85;;;5.30;99.90;;;;;;5134033;27;20407;-87
2021/12/05 13:44:59;;;;;;;9.07;3.65;;;5.30;99.90;;;;;;5128104;27;20041;-88
2021/12/05 13:47:51;;;;;;;7.78;3.90;;;5.20;99.90;;;;;;5141873;27;20047;-89
2021/12/05 13:50:25;;;;;;;12.30;4.55;;;5.30;99.90;;;;;;5123613;27;20092;-89
2021/12/05 13:52:58;;;;;;;10.27;3.95;;;5.70;99.90;;;;;;5129581;27;20130;-89
2021/12/05 13:55:39;;;;;;;8.07;4.50;;;5.30;99.90;;;;;;5126344;27;20047;-91
2021/12/05 13:58:25;;;;;;;7.90;3.97;;;5.30;99.90;;;;;;5126545;27;20058;-83
2021/12/05 14:01:15;;;;;;;7.80;3.63;;;5.20;99.90;;;;;;5147535;27;20038;-80
2021/12/05 14:04:07;;;;;;;6.70;3.47;;;5.20;99.90;;;;;;5127908;27;20103;-88
2021/12/05 14:07:02;;;;;;;7.82;3.67;;;5.10;99.90;;;;;;5141777;27;20079;-88
2021/12/05 14:09:49;;;;;;;7.38;3.33;;;5.10;99.90;;;;;;5118072;27;20043;-88
2021/12/05 14:12:30;;;;;;;9.18;3.80;;;5.10;99.90;;;;;;5152679;27;20133;-86
2021/12/05 14:15:00;;;;;;;8.40;3.58;;;5.00;99.90;;;;;;5134323;27;20046;-88
2021/12/05 14:17:29;;;;;;;7.97;3.75;;;5.20;99.90;;;;;;5133469;27;20065;-89
2021/12/05 14:19:59;;;;;;;6.90;3.60;;;5.00;99.90;;;;;;5133603;27;20043;-93
2021/12/05 14:22:29;;;;;;;6.95;3.40;;;5.10;99.90;;;;;;5138840;27;20035;-88
2021/12/05 14:24:59;;;;;;;5.65;3.30;;;4.90;99.90;;;;;;5122721;28;20050;-88
2021/12/05 14:27:33;;;;;;;9.75;3.83;;;4.90;99.90;;;;;;5124743;27;20127;-85
2021/12/05 14:30:00;;;;;;;8.75;4.38;;;4.90;99.90;;;;;;5127820;27;20126;-86
2021/12/05 14:32:32;;;;;;;9.77;3.22;;;4.90;99.90;;;;;;5139729;27;20035;-87
2021/12/05 14:35:04;;;;;;;6.07;3.05;;;4.90;99.90;;;;;;5115285;27;20035;-85
2021/12/05 14:37:33;;;;;;;9.50;3.50;;;4.90;99.90;;;;;;5147129;27;20523;-89
2021/12/05 14:40:11;;;;;;;8.93;3.10;;;5.40;99.90;;;;;;5133342;27;20090;-87
2021/12/05 14:42:40;;;;;;;7.25;3.72;;;4.80;99.90;;;;;;5132858;27;20043;-81
2021/12/05 14:45:09;;;;;;;8.80;4.28;;;4.90;99.90;;;;;;5133272;27;20039;-87
2021/12/05 14:47:36;;;;;;;8.35;4.43;;;4.80;99.90;;;;;;5132995;27;20525;-87
2021/12/05 14:50:34;;;;;;;9.02;4.50;;;4.80;99.90;;;;;;5134961;27;20491;-81
2021/12/05 14:53:02;;;;;;;12.73;5.30;;;5.30;99.90;;;;;;5136927;27;20471;-82
2021/12/05 14:55:30;;;;;;;9.85;4.60;;;5.20;99.90;;;;;;5103222;27;20043;-83
2021/12/05 14:57:58;;;;;;;13.50;5.28;;;4.70;99.90;;;;;;5137711;27;20035;-81
2021/12/05 15:00:33;;;;;;;12.02;4.68;;;5.30;99.90;;;;;;5148475;27;20059;-87
2021/12/05 15:03:14;;;;;;;11.37;4.87;;;4.70;99.90;;;;;;5138830;27;20055;-84
2021/12/05 15:05:44;;;;;;;9.65;4.05;;;4.70;99.90;;;;;;5150368;27;20283;-87
2021/12/05 15:08:12;;;;;;;10.40;4.70;;;4.70;99.90;;;;;;5144941;27;20043;-84
2021/12/05 15:10:41;;;;;;;7.65;4.82;;;4.70;99.90;;;;;;5127236;27;20049;-83
2021/12/05 15:13:09;;;;;;;9.52;4.82;;;4.60;99.90;;;;;;5136303;27;20376;-84
2021/12/05 15:15:35;;;;;;;10.23;4.32;;;4.70;99.90;;;;;;5117936;27;20551;-80
2021/12/05 15:18:02;;;;;;;6.10;3.63;;;4.70;99.90;;;;;;5119699;27;20505;-85
2021/12/05 15:20:30;;;;;;;10.45;4.50;;;4.60;99.90;;;;;;5129038;27;20030;-87
2021/12/05 15:23:06;;;;;;;11.93;4.80;;;4.60;99.90;;;;;;5148587;27;20047;-86
2021/12/05 15:25:33;;;;;;;9.73;5.15;;;4.60;99.90;;;;;;5147167;27;20042;-80
2021/12/05 15:28:00;;;;;;;11.93;6.22;;;4.60;99.90;;;;;;5153472;27;20103;-83
2021/12/05 15:30:27;;;;;;;13.13;5.80;;;4.60;99.90;;;;;;5137363;27;20047;-84
2021/12/05 15:32:57;;;;;;;12.57;5.40;;;4.50;99.90;;;;;;5135842;27;20082;-85
2021/12/05 15:35:24;;;;;;;12.63;6.47;;;4.50;99.90;;;;;;5136442;27;20039;-82
2021/12/05 15:37:54;;;;;;;10.75;5.70;;;4.50;99.90;;;;;;5117979;27;20103;-86
2021/12/05 15:40:22;;;;;;;17.08;6.10;;;5.10;99.90;;;;;;5153043;27;20038;-87
2021/12/05 15:42:48;;;;;;;9.75;5.45;;;4.70;99.90;;;;;;5136298;27;20043;-88
2021/12/05 15:45:17;;;;;;;10.77;5.18;;;4.30;99.90;;;;;;5135197;27;20043;-86
2021/12/05 15:47:46;;;;;;;15.50;6.00;;;4.30;99.90;;;;;;5123912;27;20502;-88
2021/12/05 15:50:17;;;;;;;13.02;5.70;;;4.70;99.90;;;;;;5145910;27;20093;-87
2021/12/05 15:52:53;;;;;;;9.30;5.53;;;4.10;99.90;;;;;;5113454;27;20130;-85
2021/12/05 15:55:23;;;;;;;;;;;4.10;99.90;;;;;;5120823;27;20524;-87
2021/12/05 15:58:00;;;;;;;9.63;5.40;;;4.30;99.90;;;;;;5139046;27;20033;-86
2021/12/05 16:00:32;;;;;;;13.88;6.80;;;4.10;99.90;;;;;;5140107;27;20117;-88
2021/12/05 16:03:03;;;;;;;11.48;6.10;;;4.10;99.90;;;;;;5116310;27;20043;-85
2021/12/05 16:05:33;;;;;;;11.45;5.82;;;4.10;99.90;;;;;;5144481;27;20050;-85
2021/12/05 16:08:19;;;;;;;10.13;5.93;;;4.10;99.90;;;;;;5141762;27;20047;-86
2021/12/05 16:10:48;;;;;;;12.10;6.30;;;4.10;99.90;;;;;;5126223;27;20031;-83
2021/12/05 16:13:15;;;;;;;15.30;7.30;;;4.10;99.90;;;;;;5139990;27;20046;-85
2021/12/05 16:15:43;;;;;;;13.77;6.60;;;4.10;99.90;;;;;;5114164;27;20529;-86
2021/12/05 16:18:09;;;;;;;12.90;6.20;;;4.00;99.90;;;;;;5126878;27;20092;-87
2021/12/05 16:20:43;;;;;;;15.80;6.97;;;4.00;99.90;;;;;;5127612;27;20035;-81
2021/12/05 16:23:22;;;;;;;12.00;5.78;;;4.10;99.90;;;;;;5142145;27;20130;-87
2021/12/05 16:26:00;;;;;;;12.82;6.53;;;4.10;99.90;;;;;;5138206;27;20035;-85
2021/12/05 16:28:41;;;;;;;10.25;5.20;;;4.10;99.90;;;;;;5144245;27;20031;-85
2021/12/05 16:31:22;;;;;;;13.93;5.95;;;4.00;99.90;;;;;;5146925;27;20046;-85
2021/12/05 16:34:09;;;;;;;12.23;6.10;;;4.00;99.90;;;;;;5153976;27;20034;-86
2021/12/05 16:36:37;;;;;;;13.30;5.68;;;4.00;99.90;;;;;;5135711;27;20051;-82
2021/12/05 16:39:12;;;;;;;13.50;7.72;;;4.50;99.90;;;;;;5117320;27;20100;-87
2021/12/05 16:41:45;;;;;;;14.75;7.63;;;4.40;99.90;;;;;;5151136;27;20035;-87
2021/12/05 16:44:14;;;;;;;11.52;5.65;;;4.00;99.90;;;;;;5135325;27;20078;-83
2021/12/05 16:46:46;;;;;;;14.05;6.70;;;3.90;99.90;;;;;;5134433;27;20061;-84
2021/12/05 16:49:16;;;;;;;12.23;6.70;;;4.00;99.90;;;;;;5134548;27;20049;-87
2021/12/05 16:51:56;;;;;;;12.35;6.93;;;3.90;99.90;;;;;;5134601;27;20047;-86
2021/12/05 16:54:31;;;;;;;13.40;8.13;;;3.90;99.90;;;;;;5134020;27;20091;-87
2021/12/05 16:57:20;;;;;;;13.43;7.40;;;3.90;99.90;;;;;;5129579;27;20126;-88
2021/12/05 16:59:55;;;;;;;14.65;7.95;;;3.90;99.90;;;;;;5134625;27;20138;-82
2021/12/05 17:02:25;;;;;;;13.18;6.45;;;3.80;99.90;;;;;;5140717;27;20117;-83
2021/12/05 17:05:06;;;;;;;11.45;6.35;;;4.20;99.90;;;;;;5125046;27;20092;-82
2021/12/05 17:07:44;;;;;;;11.73;6.10;;;3.70;99.90;;;;;;5119747;27;20043;-81
2021/12/05 17:10:30;;;;;;;11.98;5.95;;;3.70;99.90;;;;;;5138573;27;20078;-81
2021/12/05 17:13:24;;;;;;;9.68;5.25;;;4.10;99.90;;;;;;5133734;27;20404;-87
2021/12/05 17:15:58;;;;;;;9.23;5.32;;;3.60;99.90;;;;;;5043309;28;20057;-82
2021/12/05 17:18:32;;;;;;;10.50;5.40;;;4.20;99.90;;;;;;5060861;28;20465;-88
2021/12/05 17:21:27;;;;;;;9.02;5.15;;;3.50;99.90;;;;;;5058957;28;20045;-86
2021/12/05 17:23:55;;;;;;;12.52;6.75;;;3.50;99.90;;;;;;5039928;28;20461;-87
2021/12/05 17:26:25;;;;;;;11.10;6.25;;;3.50;99.90;;;;;;5044812;28;20547;-85
2021/12/05 17:29:05;;;;;;;12.90;6.20;;;3.40;99.90;;;;;;5053165;28;20560;-87
2021/12/05 17:31:42;;;;;;;13.75;6.22;;;3.30;99.90;;;;;;5057060;28;20045;-89
2021/12/05 17:34:30;;;;;;;9.32;5.38;;;3.20;99.90;;;;;;5058228;28;20532;-88
2021/12/05 17:37:07;;;;;;;10.20;6.15;;;3.20;99.90;;;;;;5059162;28;20098;-85
2021/12/05 17:39:35;;;;;;;10.95;5.80;;;3.20;99.90;;;;;;5061436;28;20528;-86
2021/12/05 17:42:06;;;;;;;10.00;5.55;;;3.20;99.90;;;;;;5058438;28;20123;-86
2021/12/05 17:44:32;;;;;;;10.10;5.22;;;3.20;99.90;;;;;;5041168;28;20047;-85
2021/12/05 17:47:03;;;;;;;10.88;6.13;;;3.20;99.90;;;;;;5058790;28;20057;-81
2021/12/05 17:49:31;;;;;;;9.98;5.55;;;3.20;99.90;;;;;;5041474;28;20040;-83
2021/12/05 17:51:59;;;;;;;10.57;6.05;;;3.20;99.90;;;;;;5074045;27;20567;-80
2021/12/05 17:54:35;;;;;;;10.73;6.38;;;3.20;99.90;;;;;;5141060;27;20050;-82
2021/12/05 17:57:09;;;;;;;13.85;7.22;;;3.10;99.90;;;;;;5116322;27;20047;-85
2021/12/05 18:02:48;;;;;;;13.77;7.55;;;3.20;99.90;;;;;;5116391;28;20130;-85
2021/12/05 18:05:18;;;;;;;11.52;7.40;;;3.30;99.90;;;;;;5133946;27;20043;-82
2021/12/05 18:07:44;;;;;;;12.55;6.40;;;3.30;99.90;;;;;;5138644;27;20129;-87
2021/12/05 18:10:12;;;;;;;12.93;7.13;;;3.20;99.90;;;;;;5150539;27;20175;-84
2021/12/05 18:12:38;;;;;;;13.35;7.47;;;3.20;99.90;;;;;;5133929;27;20391;-82
2021/12/05 18:15:21;;;;;;;11.63;6.57;;;3.40;99.90;;;;;;5133441;27;20046;-85
2021/12/05 18:17:47;;;;;;;10.55;5.57;;;3.20;99.90;;;;;;5148709;27;20042;-86
2021/12/05 18:20:15;;;;;;;10.07;6.03;;;3.10;99.90;;;;;;5134262;27;20482;-85
2021/12/05 18:22:41;;;;;;;11.02;6.25;;;3.10;99.90;;;;;;5126467;27;20039;-85
2021/12/05 18:25:09;;;;;;;12.57;7.03;;;3.20;99.90;;;;;;5153938;27;20482;-86
2021/12/05 18:27:36;;;;;;;10.18;6.60;;;3.10;99.90;;;;;;5154691;27;20045;-85
2021/12/05 18:30:04;;;;;;;13.90;6.53;;;3.70;99.90;;;;;;5121961;27;20043;-86
2021/12/05 18:32:30;;;;;;;11.70;6.97;;;3.10;99.90;;;;;;5134786;27;20088;-85
2021/12/05 18:34:56;;;;;;;14.45;8.27;;;3.10;99.90;;;;;;5153206;27;20035;-86
2021/12/05 18:37:21;;;;;;;13.52;7.70;;;3.10;99.90;;;;;;5130323;27;20082;-86
2021/12/05 18:39:50;;;;;;;14.77;7.68;;;3.00;99.90;;;;;;5132371;27;20126;-88
2021/12/05 18:42:18;;;;;;;12.65;7.30;;;3.00;99.90;;;;;;5153306;27;20058;-87
2021/12/05 18:44:50;;;;;;;11.95;6.57;;;3.00;99.90;;;;;;5137843;27;20039;-85
2021/12/05 18:47:17;;;;;;;12.80;7.35;;;3.00;99.90;;;;;;5119948;27;20063;-84
2021/12/05 18:49:44;;;;;;;13.25;7.53;;;2.90;99.90;;;;;;5142545;27;20039;-83
2021/12/05 18:52:10;;;;;;;12.15;7.43;;;2.90;99.90;;;;;;5141372;27;20042;-83
2021/12/05 18:54:42;;;;;;;11.38;7.00;;;2.90;99.90;;;;;;5144472;27;20039;-83